Terminal Aerodrome Forecast
Issued by NWS

Home | Current Version | Previous Version | Text Only | Print | Product List | Glossary On
Versions: 1 2 3 4 5 6 7 8 9 10 11 12 13 14 15 16 17 18
000
FTUS41 KCAR 252337
TAFPQI
TAF
KPQI 252337Z 2600/2624 15008KT P6SM VCSH OVC050
     FM260100 15008KT 6SM -RA SCT020 OVC035
     FM260300 15010KT 5SM -RA BR OVC020
     FM260500 15010KT 3SM -RA BR OVC010
     FM260700 15010KT 3SM -RA BR OVC005
     FM261400 15010KT 5SM -RA BR OVC008=

USA.gov is the U.S. government's official web portal to all federal, state and local government web resources and services.